createdAt,value
2023-02-16T00:00:50.661Z,18.97
2023-02-16T00:05:53.430Z,17.33
2023-02-16T00:11:14.964Z,17.40
2023-02-16T00:16:19.342Z,18.90
2023-02-16T00:21:22.475Z,19.43
2023-02-16T00:26:35.362Z,17.27
2023-02-16T00:31:38.120Z,18.90
2023-02-16T00:36:40.814Z,18.83
2023-02-16T00:41:51.404Z,18.07
2023-02-16T00:46:54.358Z,17.80
2023-02-16T00:51:57.234Z,18.40
2023-02-16T00:57:01.236Z,17.93
2023-02-16T01:02:04.192Z,18.20
2023-02-16T01:07:43.855Z,18.50
2023-02-16T01:12:48.372Z,18.30
2023-02-16T01:17:51.480Z,18.13
2023-02-16T01:22:54.896Z,18.60
2023-02-16T01:27:59.372Z,17.40
2023-02-16T01:33:02.491Z,17.03
2023-02-16T01:38:06.737Z,18.00
2023-02-16T01:43:20.008Z,17.70
2023-02-16T01:48:27.339Z,17.80
2023-02-16T01:53:34.448Z,17.83
2023-02-16T01:58:44.721Z,17.50
2023-02-16T02:04:13.890Z,15.77
2023-02-16T02:09:23.542Z,16.43
2023-02-16T02:14:32.487Z,16.23
2023-02-16T02:19:46.301Z,16.40
2023-02-16T02:25:24.007Z,16.00
2023-02-16T02:30:43.370Z,13.93
2023-02-16T02:35:56.477Z,15.17
2023-02-16T02:41:05.257Z,14.97
2023-02-16T02:46:14.995Z,15.30
2023-02-16T02:51:30.758Z,15.07
2023-02-16T02:56:51.777Z,15.97
2023-02-16T03:02:01.652Z,15.10
2023-02-16T03:07:08.801Z,15.20
2023-02-16T03:12:32.592Z,15.40
2023-02-16T03:17:56.480Z,15.83
2023-02-16T03:23:18.482Z,15.67
2023-02-16T03:28:41.921Z,15.10
2023-02-16T03:33:54.535Z,14.87
2023-02-16T03:38:59.097Z,15.03
2023-02-16T03:44:03.302Z,15.80
2023-02-16T03:49:11.402Z,16.40
2023-02-16T03:54:15.091Z,16.60
2023-02-16T03:59:20.251Z,16.33
2023-02-16T04:04:24.996Z,16.77
2023-02-16T04:09:27.758Z,17.23
2023-02-16T04:14:30.393Z,15.50
2023-02-16T04:19:34.373Z,16.40
2023-02-16T04:24:37.041Z,16.67
2023-02-16T04:29:39.721Z,16.20
2023-02-16T04:34:43.798Z,16.00
2023-02-16T04:39:46.593Z,16.30
2023-02-16T04:44:49.242Z,16.23
2023-02-16T04:49:53.340Z,15.77
2023-02-16T04:54:56.026Z,16.27
2023-02-16T04:59:58.718Z,19.97
2023-02-16T05:05:02.951Z,21.57
2023-02-16T05:10:07.044Z,18.83
2023-02-16T05:15:09.999Z,18.43
2023-02-16T05:20:15.030Z,20.10
2023-02-16T05:25:17.663Z,16.77
2023-02-16T05:30:20.518Z,17.43
2023-02-16T05:35:24.569Z,16.97
2023-02-16T05:40:27.213Z,18.33
2023-02-16T05:45:29.870Z,15.23
2023-02-16T05:50:33.865Z,17.00
2023-02-16T05:55:36.535Z,16.53
2023-02-16T06:00:39.212Z,17.93
2023-02-16T06:05:43.194Z,17.47
2023-02-16T06:10:45.878Z,17.97
2023-02-16T06:15:49.173Z,17.47
2023-02-16T06:20:53.293Z,16.57
2023-02-16T06:25:57.713Z,16.37
2023-02-16T06:31:00.480Z,17.00
2023-02-16T06:36:05.421Z,18.20
2023-02-16T06:41:08.140Z,17.53
2023-02-16T06:46:10.783Z,17.00
2023-02-16T06:51:18.295Z,16.93
2023-02-16T06:56:21.079Z,17.17
2023-02-16T07:01:25.668Z,17.20
2023-02-16T07:06:30.840Z,17.30
2023-02-16T07:11:33.611Z,16.97
2023-02-16T07:16:36.298Z,17.43
2023-02-16T07:21:40.289Z,17.23
2023-02-16T07:26:42.914Z,17.33
2023-02-16T07:31:45.691Z,18.17
2023-02-16T07:36:49.961Z,17.30
2023-02-16T07:41:52.627Z,15.97
2023-02-16T07:46:55.276Z,15.17
2023-02-16T07:51:59.310Z,15.87
2023-02-16T07:57:02.024Z,14.50
2023-02-16T08:02:04.733Z,14.70
2023-02-16T08:07:08.998Z,14.70
2023-02-16T08:12:13.415Z,15.17
2023-02-16T08:17:16.171Z,14.83
2023-02-16T08:22:20.168Z,14.47
2023-02-16T08:27:23.006Z,13.10
2023-02-16T08:32:26.435Z,13.30
2023-02-16T08:37:30.528Z,12.90
2023-02-16T08:42:33.321Z,13.03
2023-02-16T08:47:36.517Z,13.73
2023-02-16T08:52:40.466Z,13.83
2023-02-16T08:57:43.091Z,13.33
2023-02-16T09:02:45.800Z,13.50
2023-02-16T09:07:52.699Z,14.50
2023-02-16T09:12:55.653Z,13.43
2023-02-16T09:17:58.682Z,13.30
2023-02-16T09:23:02.836Z,13.00
2023-02-16T09:28:06.710Z,13.27
2023-02-16T09:33:09.933Z,13.30
2023-02-16T09:38:16.649Z,14.17
2023-02-16T09:43:30.292Z,13.73
2023-02-16T09:48:37.762Z,14.03
2023-02-16T09:53:46.402Z,15.17
2023-02-16T09:58:55.260Z,15.03
2023-02-16T10:04:09.298Z,14.05
2023-02-16T10:09:16.488Z,17.75
2023-02-16T10:14:30.725Z,15.75
2023-02-16T10:26:26.014Z,15.20
2023-02-16T10:57:17.841Z,15.38
2023-02-16T11:03:03.100Z,15.85
2023-02-16T11:08:51.142Z,15.48
2023-02-16T11:14:20.355Z,15.95
2023-02-16T11:19:27.023Z,16.30
2023-02-16T11:24:32.037Z,15.93
2023-02-16T11:29:36.603Z,15.82
2023-02-16T11:34:45.352Z,16.17
2023-02-16T11:45:47.915Z,16.73
2023-02-16T11:57:29.092Z,16.88
2023-02-16T12:03:56.491Z,15.10
2023-02-16T12:09:48.582Z,15.35
2023-02-16T12:27:11.405Z,15.90
2023-02-16T12:33:00.238Z,16.55
2023-02-16T12:38:29.634Z,16.65
2023-02-16T12:49:48.943Z,16.67
2023-02-16T12:55:45.545Z,17.45
2023-02-16T13:01:17.966Z,18.38
2023-02-16T13:26:29.463Z,18.45
2023-02-16T14:09:10.293Z,19.65
2023-02-16T14:21:20.899Z,19.33
2023-02-16T14:27:02.202Z,20.00
2023-02-16T14:38:46.503Z,20.58
2023-02-16T14:44:30.010Z,20.40
2023-02-16T14:56:49.830Z,20.47
2023-02-16T15:02:55.787Z,20.77
2023-02-16T15:09:01.572Z,21.00
2023-02-16T15:15:14.917Z,20.80
2023-02-16T15:21:13.485Z,20.50
2023-02-16T15:27:11.525Z,20.93
2023-02-16T15:33:04.633Z,19.83
2023-02-16T15:39:37.922Z,21.97
2023-02-16T15:51:28.600Z,22.37
2023-02-16T16:03:51.100Z,23.10
2023-02-16T16:15:32.498Z,21.47
2023-02-16T16:20:44.813Z,22.97
2023-02-16T16:25:52.127Z,23.33
2023-02-16T16:31:08.442Z,24.07
2023-02-16T16:36:12.901Z,23.77
2023-02-16T16:41:28.636Z,24.63
2023-02-16T16:46:32.669Z,23.90
2023-02-16T16:51:40.219Z,25.63
2023-02-16T16:56:44.181Z,26.97
2023-02-16T17:01:50.284Z,27.47
2023-02-16T17:06:52.986Z,26.47
2023-02-16T17:11:56.981Z,27.23
2023-02-16T17:16:59.621Z,23.97
2023-02-16T17:22:02.379Z,25.43
2023-02-16T17:27:06.661Z,26.43
2023-02-16T17:32:10.061Z,25.90
2023-02-16T17:37:13.048Z,26.30
2023-02-16T17:42:17.013Z,26.83
2023-02-16T17:47:19.836Z,27.07
2023-02-16T17:52:22.507Z,25.07
2023-02-16T17:57:28.095Z,26.33
2023-02-16T18:02:31.209Z,26.00
2023-02-16T18:07:33.881Z,28.57
2023-02-16T18:12:37.847Z,25.20
2023-02-16T18:17:40.530Z,26.37
2023-02-16T18:22:43.418Z,25.40
2023-02-16T18:27:47.391Z,25.37
2023-02-16T18:32:50.595Z,25.43
2023-02-16T18:37:53.239Z,25.27
2023-02-16T18:42:58.347Z,25.60
2023-02-16T18:48:01.168Z,25.83
2023-02-16T18:53:03.840Z,26.10
2023-02-16T18:58:08.768Z,25.23
2023-02-16T19:03:11.520Z,26.40
2023-02-16T19:08:14.613Z,25.13
2023-02-16T19:13:18.628Z,26.30
2023-02-16T19:18:21.303Z,25.20
2023-02-16T19:23:24.000Z,28.07
2023-02-16T21:31:09.162Z,20.00
2023-02-16T21:36:28.501Z,19.77
2023-02-16T21:41:42.220Z,20.93
2023-02-16T21:46:50.277Z,20.17
2023-02-16T21:52:09.337Z,19.83
2023-02-16T21:57:14.229Z,19.63
2023-02-16T22:02:17.040Z,20.90
2023-02-16T22:07:30.073Z,21.27
2023-02-16T22:12:43.968Z,21.53
2023-02-16T22:17:47.944Z,20.97
2023-02-16T22:23:24.590Z,20.50
2023-02-16T22:34:52.943Z,21.50
2023-02-16T22:46:21.444Z,20.87
2023-02-16T22:51:48.102Z,20.50
2023-02-16T22:57:37.369Z,20.43
2023-02-16T23:03:32.894Z,20.20
2023-02-16T23:09:09.878Z,19.03
2023-02-16T23:15:05.800Z,20.17
2023-02-16T23:26:49.564Z,19.00
2023-02-16T23:32:34.635Z,19.57
2023-02-16T23:38:05.749Z,18.63
2023-02-16T23:43:51.584Z,16.67
2023-02-16T23:49:25.155Z,17.23
2023-02-16T23:54:34.722Z,14.17
